Archival Weather

Norman Y Mineta San Jose Intl

San Jose, California (KSJC)

Report from: Sunday, February 11, 2024 12:53 PM PST
Current time: Monday, June 24, 2024 3:46 AM PDT

Current weather – Weather history – Daily summaries
Weather forecast

Temperature16.7°C (62.1°F)
Dew point6.1°C (43.0°F)
Winds 4 kts (2.1 m/s, 4.6 mph) North-Northwest (330°)
Visibility10 mi. (16.1 km)
Clouds Few clouds 3,000 ft. (914 m)
Scattered clouds 15,000 ft. (4,572 m)
Altimeter30.20 in.Hg (1023 mB)
Relative humidity50 %
Density altitude27 ft. (8 m)
Sea-level pressure102.3 kPa (1023 mB, 30.19 in.Hg)
Remarks Automated weather observing station with precipitation discriminator
Pressure falling more quickly
Flight conditions Visual Meteorological Conditions
Raw dataKSJC 112053Z 33004KT 10SM FEW030 SCT150 17/06 A3020 RMK AO2 SLP225 T01670061 58020
An error has occurred. This application may no longer respond until reloaded. Reload 🗙